Flight Number: EUR2150 Duration: 1:30
Departure: Warsaw Okecie (EPWA) at 21:10 Distance: 420 Nm
Arrival: Munich Int'l (EDDM) at 22:40 Equipment: CRJ700

Weather Information
Warszawa-Okecie, Poland (EPWA) 52-10N 020-58E 107M Oct 19, 2018 - 01:30 PM EDT / 2018.10.19 1730 UTC
Wind: from the W (270 degrees) at 2 MPH (2 KT):0
Visibility: greater than 7 mile(s):0 Weather: shallow fog Temperature: 48 F (9 C) Dew Point: 44 F (7 C) Relative Humidity: 87% Pressure (altimeter): 30.21 in. Hg (1023 hPa)
ob: EPWA 191730Z 27002KT 9999 MIFG NSC 09/07 Q1023 NOSIG cycle: 17
Sunrise: 05:12 Sunset: 15:29 (UTC)

Munchen, Germany (EDDM) 48-21N 011-47E Oct 19, 2018 - 01:50 PM EDT / 2018.10.19 1750 UTC
Wind: from the N (360 degrees) at 2 MPH (2 KT):0
Visibility: 5 mile(s):0 Temperature: 48 F (9 C) Dew Point: 46 F (8 C) Relative Humidity: 93% Pressure (altimeter): 30.21 in. Hg (1023 hPa)
ob: EDDM 191750Z 36002KT 9000 NSC 09/08 Q1023 NOSIG cycle: 18
Sunrise: 05:42 Sunset: 16:12 (UTC)

TAF:2018/10/19 18:44 TAF EDDM 191700Z 1918/2024 VRB02KT 8000 NSC BECMG 1921/1924 2000 BCFG PROB30 TEMPO 2001/2009 0700 FG BECMG 2009/2011 7000 BKN013 BECMG 2011/2013 34006KT SCT013 BECMG 2016/2018 VRB03KT PROB30 TEMPO 2022/2024 3000 BCFG

Previous Pireps for this route
Date Aircraft Flight time Fuel used Landing rate On time
2012-09-14MD-8101.4610209-472Yes
2013-03-09MD-811.2082150No
2015-02-12B73701.469559-85Charter
2015-04-07MD-8101.156709-234Yes
2015-04-10CRJ7001.1948260No
2015-04-22MD-8101.259980-235Yes
2015-04-25MD-811.1798940Yes
2015-05-20CRJ7001.2338850Yes
2016-08-25A32102.0011534-237Charter
(pireps marked green are flown by you)

Route map